Time;durP1;ratioP1;P1;durP2;ratioP2;P2;SDS_P1;SDS_P2;PMS_P1;PMS_P2;Temp;Humidity;BMP_temperature;BMP_pressure;BME280_temperature;BME280_humidity;BME280_pressure;Samples;Min_cycle;Max_cycle;Signal;HPM_P1;HPM_P2
2024/02/14 00:08:46;;;;;;;;;;;9.20;99.90;;;;;;6714870;88;20143;-77
2024/02/14 00:18:47;;;;;;;;;;;9.10;99.90;;;;;;6718040;88;20174;-77
2024/02/14 00:28:47;;;;;;;;;;;9.20;99.90;;;;;;6717608;88;20072;-77
2024/02/14 00:38:48;;;;;;;;;;;9.20;99.90;;;;;;6716005;88;20054;-77
2024/02/14 00:48:48;;;;;;;;;;;9.10;99.90;;;;;;6714261;88;20657;-77
2024/02/14 00:58:49;;;;;;;;;;;9.10;99.90;;;;;;6715921;88;20134;-77
2024/02/14 01:08:49;;;;;;;;;;;9.10;99.90;;;;;;6715219;88;20230;-77
2024/02/14 01:18:50;;;;;;;;;;;9.10;99.90;;;;;;6711282;88;20710;-77
2024/02/14 01:28:50;;;;;;;;;;;9.20;99.90;;;;;;6712341;88;20113;-79
2024/02/14 01:38:51;;;;;;;;;;;9.10;99.90;;;;;;6708390;88;20081;-76
2024/02/14 01:48:51;;;;;;;;;;;9.00;99.90;;;;;;6721320;88;20058;-78
2024/02/14 01:58:53;;;;;;;;;;;8.80;99.90;;;;;;6706874;88;20615;-79
2024/02/14 02:08:53;;;;;;;;;;;8.70;99.90;;;;;;6720638;88;20135;-79
2024/02/14 02:18:54;;;;;;;;;;;8.90;99.90;;;;;;6715811;88;20055;-77
2024/02/14 02:28:54;;;;;;;;;;;8.90;99.90;;;;;;6718415;88;20055;-78
2024/02/14 02:38:56;;;;;;;;;;;8.80;99.90;;;;;;6716585;88;20068;-78
2024/02/14 02:48:57;;;;;;;;;;;8.90;99.90;;;;;;6722957;77;20137;-77
2024/02/14 02:58:57;;;;;;;;;;;8.90;99.90;;;;;;6718236;88;20063;-77
2024/02/14 03:08:58;;;;;;;;;;;9.00;99.90;;;;;;6727418;88;20091;-77
2024/02/14 03:18:58;;;;;;;;;;;8.90;99.90;;;;;;6716415;88;20443;-77
2024/02/14 03:29:06;;;;;;;;;;;9.00;99.90;;;;;;6713101;88;20071;-77
2024/02/14 03:39:06;;;;;;;;;;;9.00;99.90;;;;;;6713538;88;20076;-77
2024/02/14 03:49:07;;;;;;;;;;;9.00;99.90;;;;;;6711112;88;20057;-77
2024/02/14 03:59:07;;;;;;;;;;;9.10;99.90;;;;;;6724288;88;20105;-77
2024/02/14 04:09:08;;;;;;;;;;;9.10;99.90;;;;;;6718090;88;20592;-79
2024/02/14 04:19:10;;;;;;;;;;;9.00;99.90;;;;;;6718153;88;20082;-78
2024/02/14 04:29:11;;;;;;;;;;;9.00;99.90;;;;;;6718163;88;20474;-77
2024/02/14 04:39:11;;;;;;;;;;;9.10;99.90;;;;;;6717530;88;20047;-78
2024/02/14 04:49:14;;;;;;;;;;;9.10;99.90;;;;;;6717285;88;20074;-77
2024/02/14 04:59:14;;;;;;;;;;;9.10;99.90;;;;;;6725401;88;20065;-78
2024/02/14 05:09:15;;;;;;;;;;;9.10;99.90;;;;;;6726146;88;20058;-78
2024/02/14 05:19:15;;;;;;;;;;;9.10;99.90;;;;;;6719923;88;20055;-77
2024/02/14 05:29:18;;;;;;;;;;;9.10;99.90;;;;;;6712339;88;20084;-75
2024/02/14 05:39:19;;;;;;;;;;;9.10;99.90;;;;;;6730298;88;20867;-75
2024/02/14 05:49:19;;;;;;;;;;;9.20;99.90;;;;;;6707474;88;20058;-77
2024/02/14 05:59:19;;;;;;;;;;;9.20;99.90;;;;;;6706843;88;20208;-77
2024/02/14 06:09:20;;;;;;;;;;;9.30;99.90;;;;;;6712219;88;20118;-75
2024/02/14 06:19:20;;;;;;;;;;;9.50;99.90;;;;;;6703097;88;20657;-77
2024/02/14 06:29:21;;;;;;;;;;;9.40;99.90;;;;;;6701543;88;20067;-77
2024/02/14 06:39:21;;;;;;;;;;;9.40;99.90;;;;;;6700907;88;20847;-76
2024/02/14 06:49:22;;;;;;;;;;;9.30;99.90;;;;;;6705970;88;20059;-76
2024/02/14 06:59:23;;;;;;;;;;;9.30;99.90;;;;;;6703209;88;20063;-77
2024/02/14 07:09:25;;;;;;;;;;;9.30;99.90;;;;;;6704553;88;20130;-77
2024/02/14 07:19:25;;;;;;;;;;;9.50;99.90;;;;;;6701924;88;20187;-76
2024/02/14 07:29:27;;;;;;;;;;;9.70;99.90;;;;;;6694367;88;20067;-76
2024/02/14 07:39:27;;;;;;;;;;;9.70;99.90;;;;;;6696378;88;20577;-76
2024/02/14 07:49:28;;;;;;;;;;;9.80;99.90;;;;;;6705003;88;20103;-76
2024/02/14 07:59:28;;;;;;;;;;;9.90;99.90;;;;;;6701454;88;20125;-76
2024/02/14 08:09:29;;;;;;;;;;;10.10;99.90;;;;;;6702904;88;20092;-76
2024/02/14 08:19:29;;;;;;;;;;;10.30;99.90;;;;;;6701742;88;20051;-75
2024/02/14 08:29:30;;;;;;;;;;;10.50;99.90;;;;;;6705751;88;20085;-77
2024/02/14 08:39:31;;;;;;;;;;;10.60;99.90;;;;;;6702127;88;20187;-75
2024/02/14 08:49:52;;;;;;;;;;;10.70;99.90;;;;;;6713410;77;20477;-78
2024/02/14 08:59:52;;;;;;;;;;;10.90;99.90;;;;;;6690081;89;20049;-79
2024/02/14 09:09:53;;;;;;;;;;;10.90;99.90;;;;;;6689125;89;20554;-78
2024/02/14 09:19:53;;;;;;;;;;;11.20;99.90;;;;;;6701457;87;20049;-78
2024/02/14 09:29:53;;;;;;;;;;;11.40;99.90;;;;;;6723631;87;20057;-78
2024/02/14 09:39:54;;;;;;;;;;;11.60;99.90;;;;;;6682444;88;20212;-78
2024/02/14 09:49:55;;;;;;;;;;;11.70;99.90;;;;;;6697752;87;20128;-78
2024/02/14 09:59:56;;;;;;;;;;;12.00;99.90;;;;;;6666332;89;20830;-79
2024/02/14 10:10:05;;;;;;;;;;;12.50;99.90;;;;;;6681111;88;20064;-77
2024/02/14 10:20:07;;;;;;;;;;;12.50;99.90;;;;;;6668691;88;20506;-78
2024/02/14 10:30:11;;;;;;;;;;;12.70;99.90;;;;;;6688160;88;20132;-77
2024/02/14 10:40:11;;;;;;;;;;;13.00;99.90;;;;;;6670047;88;20111;-77
2024/02/14 10:50:13;;;;;;;;;;;12.90;99.90;;;;;;6684869;88;20065;-77
2024/02/14 11:00:15;;;;;;;;;;;12.80;99.90;;;;;;6687480;88;20071;-78
2024/02/14 11:10:16;;;;;;;;;;;12.90;99.90;;;;;;6670540;88;20231;-77
2024/02/14 11:20:21;;;;;;;;;;;13.00;99.90;;;;;;6673419;88;20076;-76
2024/02/14 11:30:28;;;;;;;;;;;13.20;99.90;;;;;;6668617;88;20066;-77
2024/02/14 11:40:29;;;;;;;;;;;13.20;99.90;;;;;;6669129;88;20509;-77
2024/02/14 11:50:29;;;;;;;;;;;13.30;99.90;;;;;;6678983;88;20058;-77
2024/02/14 12:00:30;;;;;;;;;;;13.50;99.90;;;;;;6670381;88;20050;-77
2024/02/14 12:10:31;;;;;;;;;;;13.40;99.90;;;;;;6671887;88;20103;-77
2024/02/14 12:20:33;;;;;;;;;;;13.70;99.90;;;;;;6668221;88;20071;-77
2024/02/14 12:30:43;;;;;;;;;;;13.50;99.90;;;;;;6675558;88;20058;-77
2024/02/14 12:40:46;;;;;;;;;;;13.50;99.90;;;;;;6673460;88;20071;-77
2024/02/14 12:50:49;;;;;;;;;;;13.30;99.90;;;;;;6676960;87;20176;-78
2024/02/14 13:00:49;;;;;;;;;;;13.40;99.90;;;;;;6733951;88;20854;-78
2024/02/14 13:10:50;;;;;;;;;;;13.30;99.90;;;;;;6731844;88;20061;-77
2024/02/14 13:20:57;;;;;;;;;;;13.10;99.90;;;;;;6731622;88;20047;-78
2024/02/14 13:30:57;;;;;;;;;;;12.90;99.90;;;;;;6734649;88;20155;-78
2024/02/14 13:40:59;;;;;;;;;;;12.60;99.90;;;;;;6737851;88;20055;-78
2024/02/14 13:51:00;;;;;;;;;;;12.40;99.90;;;;;;6733313;88;20142;-78
2024/02/14 14:01:01;;;;;;;;;;;12.20;99.90;;;;;;6670286;88;20129;-78
2024/02/14 14:11:05;;;;;;;;;;;11.70;99.90;;;;;;6666637;89;20082;-79
2024/02/14 14:21:06;;;;;;;;;;;11.50;99.90;;;;;;6693699;88;20057;-78
2024/02/14 14:31:09;;;;;;;;;;;11.50;99.90;;;;;;6690580;88;20971;-79
2024/02/14 14:41:10;;;;;;;;;;;11.40;99.90;;;;;;6704688;88;20073;-77
2024/02/14 14:51:10;;;;;;;;;;;11.20;99.90;;;;;;6679331;77;20564;-76
2024/02/14 15:01:13;;;;;;;;;;;11.00;99.90;;;;;;6661129;89;20101;-78
2024/02/14 15:11:16;;;;;;;;;;;11.10;99.90;;;;;;6661338;89;20071;-77
2024/02/14 15:21:17;;;;;;;;;;;11.10;99.90;;;;;;6662768;89;20183;-77
2024/02/14 15:41:36;;;;;;;;;;;11.10;99.90;;;;;;6669943;89;20064;-78
2024/02/14 15:51:37;;;;;;;;;;;11.10;99.90;;;;;;6680683;88;20068;-77
2024/02/14 16:01:38;;;;;;;;;;;11.10;99.90;;;;;;6680931;88;20082;-79
2024/02/14 16:11:38;;;;;;;;;;;11.20;99.90;;;;;;6662683;88;20126;-77
2024/02/14 16:21:39;;;;;;;;;;;11.20;99.90;;;;;;6687694;88;20061;-77
2024/02/14 16:31:39;;;;;;;;;;;11.40;99.90;;;;;;6661815;89;20139;-78
2024/02/14 16:41:40;;;;;;;;;;;11.50;99.90;;;;;;6676388;88;20215;-78
2024/02/14 16:51:40;;;;;;;;;;;11.50;99.90;;;;;;6692698;87;20052;-79
2024/02/14 17:01:40;;;;;;;;;;;11.60;99.90;;;;;;6703530;87;20064;-79
2024/02/14 17:11:41;;;;;;;;;;;11.60;99.90;;;;;;6694903;87;20095;-79
2024/02/14 17:21:41;;;;;;;;;;;11.60;99.90;;;;;;6695741;87;20072;-79
2024/02/14 17:31:42;;;;;;;;;;;11.60;99.90;;;;;;6694779;87;20071;-79
2024/02/14 17:41:44;;;;;;;;;;;11.70;99.90;;;;;;6749804;87;20076;-78
2024/02/14 17:51:47;;;;;;;;;;;11.80;99.90;;;;;;6733599;87;20558;-79
2024/02/14 18:01:48;;;;;;;;;;;11.90;99.90;;;;;;6756912;87;20133;-78
2024/02/14 18:11:49;;;;;;;;;;;11.90;99.90;;;;;;6696970;87;20665;-79
2024/02/14 18:21:49;;;;;;;;;;;11.90;99.90;;;;;;6686870;87;20105;-78
2024/02/14 18:31:50;;;;;;;;;;;11.80;99.90;;;;;;6698585;87;20963;-77
2024/02/14 18:41:51;;;;;;;;;;;11.70;99.90;;;;;;6691767;87;20818;-75
2024/02/14 18:51:51;;;;;;;;;;;11.70;99.90;;;;;;6696176;87;20548;-76
2024/02/14 19:01:54;;;;;;;;;;;11.60;99.90;;;;;;6695437;87;20483;-78
2024/02/14 19:11:55;;;;;;;;;;;11.60;99.90;;;;;;6690152;87;20805;-78
2024/02/14 19:21:55;;;;;;;;;;;11.50;99.90;;;;;;6710319;87;20155;-78
2024/02/14 19:31:56;;;;;;;;;;;11.50;99.90;;;;;;6704600;87;20234;-77
2024/02/14 19:41:56;;;;;;;;;;;11.40;99.90;;;;;;6701909;87;20067;-77
2024/02/14 19:51:57;;;;;;;;;;;11.40;99.90;;;;;;6684993;87;20095;-78
2024/02/14 20:01:57;;;;;;;;;;;11.40;99.90;;;;;;6684002;88;20087;-78
2024/02/14 20:11:59;;;;;;;;;;;11.50;99.90;;;;;;6698862;87;20091;-78
2024/02/14 20:21:59;;;;;;;;;;;11.40;99.90;;;;;;6683110;89;20610;-77
2024/02/14 20:32:01;;;;;;;;;;;11.50;99.90;;;;;;6692024;88;20112;-79
2024/02/14 20:42:01;;;;;;;;;;;11.40;99.90;;;;;;6738278;87;20052;-79
2024/02/14 20:52:02;;;;;;;;;;;11.50;99.90;;;;;;6743255;87;20083;-78
2024/02/14 21:02:03;;;;;;;;;;;11.40;99.90;;;;;;6691041;87;20052;-78
2024/02/14 21:12:03;;;;;;;;;;;11.40;99.90;;;;;;6692845;87;20089;-79
2024/02/14 21:22:04;;;;;;;;;;;11.30;99.90;;;;;;6694993;88;20061;-79
2024/02/14 21:32:05;;;;;;;;;;;11.20;99.90;;;;;;6686352;87;20057;-79
2024/02/14 21:42:07;;;;;;;;;;;11.40;99.90;;;;;;6718386;87;20057;-78
2024/02/14 21:52:08;;;;;;;;;;;11.50;99.90;;;;;;6698197;87;20071;-78
2024/02/14 22:02:08;;;;;;;;;;;11.50;99.90;;;;;;6686199;88;20963;-78
2024/02/14 22:12:09;;;;;;;;;;;11.70;99.90;;;;;;6684345;89;20070;-78
2024/02/14 22:22:12;;;;;;;;;;;11.70;99.90;;;;;;6713592;87;20136;-78
2024/02/14 22:32:14;;;;;;;;;;;11.70;99.90;;;;;;6726603;87;20063;-78
2024/02/14 22:42:14;;;;;;;;;;;11.70;99.90;;;;;;6700673;87;20241;-78
2024/02/14 22:52:15;;;;;;;;;;;11.70;99.90;;;;;;6745241;87;20123;-78
2024/02/14 23:02:17;;;;;;;;;;;11.70;99.90;;;;;;6686141;88;20057;-78
2024/02/14 23:12:17;;;;;;;;;;;11.80;99.90;;;;;;6681885;89;20128;-78
2024/02/14 23:22:17;;;;;;;;;;;11.80;99.90;;;;;;6697315;76;20868;-76
2024/02/14 23:32:18;;;;;;;;;;;11.90;99.90;;;;;;6670358;88;20117;-76
2024/02/14 23:42:19;;;;;;;;;;;11.90;99.90;;;;;;6674794;88;20065;-78
2024/02/14 23:52:19;;;;;;;;;;;11.90;99.90;;;;;;6663865;88;20179;-77
